createdAt,value
2018-09-17T00:02:12.032Z,16.70
2018-09-17T00:04:42.134Z,16.70
2018-09-17T00:07:12.105Z,16.70
2018-09-17T00:09:42.320Z,16.70
2018-09-17T00:12:12.357Z,16.70
2018-09-17T00:14:42.605Z,16.60
2018-09-17T00:17:12.615Z,16.60
2018-09-17T00:19:43.123Z,16.60
2018-09-17T00:22:13.247Z,16.60
2018-09-17T00:24:43.507Z,16.60
2018-09-17T00:27:13.488Z,16.60
2018-09-17T00:29:43.710Z,16.50
2018-09-17T00:32:13.625Z,16.50
2018-09-17T00:34:43.633Z,16.50
2018-09-17T00:37:13.871Z,16.50
2018-09-17T00:39:43.894Z,16.50
2018-09-17T00:42:14.436Z,16.50
2018-09-17T00:44:44.619Z,16.50
2018-09-17T00:47:14.753Z,16.50
2018-09-17T00:49:44.898Z,16.50
2018-09-17T00:52:15.047Z,16.50
2018-09-17T00:54:45.105Z,16.50
2018-09-17T00:57:15.105Z,16.40
2018-09-17T00:59:45.254Z,16.40
2018-09-17T01:02:15.284Z,16.40
2018-09-17T01:04:45.232Z,16.40
2018-09-17T01:07:15.240Z,16.40
2018-09-17T01:09:45.350Z,16.40
2018-09-17T01:12:16.021Z,16.30
2018-09-17T01:14:46.133Z,16.30
2018-09-17T01:17:16.184Z,16.30
2018-09-17T01:19:46.444Z,16.30
2018-09-17T01:22:16.458Z,16.30
2018-09-17T01:24:46.685Z,16.30
2018-09-17T01:27:16.835Z,16.30
2018-09-17T01:29:46.981Z,16.30
2018-09-17T01:32:17.109Z,16.30
2018-09-17T01:34:46.998Z,16.20
2018-09-17T01:37:17.017Z,16.20
2018-09-17T01:39:47.301Z,16.20
2018-09-17T01:42:17.414Z,16.20
2018-09-17T01:44:47.331Z,16.20
2018-09-17T01:47:17.487Z,16.20
2018-09-17T01:49:47.514Z,16.10
2018-09-17T01:52:17.788Z,16.10
2018-09-17T01:54:48.071Z,16.10
2018-09-17T01:57:17.995Z,16.10
2018-09-17T01:59:47.990Z,16.10
2018-09-17T02:02:18.113Z,16.10
2018-09-17T02:04:48.393Z,16.10
2018-09-17T02:07:18.315Z,16.10
2018-09-17T02:09:48.409Z,16.00
2018-09-17T02:12:18.568Z,16.00
2018-09-17T02:14:48.608Z,16.00
2018-09-17T02:17:18.715Z,16.00
2018-09-17T02:19:48.833Z,16.00
2018-09-17T02:22:18.952Z,16.00
2018-09-17T02:24:49.157Z,16.00
2018-09-17T02:27:19.373Z,16.00
2018-09-17T02:29:49.414Z,16.00
2018-09-17T02:32:19.418Z,15.90
2018-09-17T02:34:49.482Z,15.90
2018-09-17T02:37:19.626Z,15.90
2018-09-17T02:39:49.762Z,15.90
2018-09-17T02:42:19.857Z,15.90
2018-09-17T02:44:50.004Z,15.90
2018-09-17T02:47:20.228Z,15.90
2018-09-17T02:49:50.356Z,15.90
2018-09-17T02:52:20.258Z,15.90
2018-09-17T02:54:50.398Z,15.90
2018-09-17T02:57:20.512Z,15.90
2018-09-17T02:59:50.649Z,15.80
2018-09-17T03:02:20.606Z,15.80
2018-09-17T03:04:50.677Z,15.80
2018-09-17T03:07:20.677Z,15.80
2018-09-17T03:09:50.891Z,15.80
2018-09-17T03:12:20.821Z,15.80
2018-09-17T03:14:50.866Z,15.80
2018-09-17T03:17:21.069Z,15.70
2018-09-17T03:19:51.158Z,15.70
2018-09-17T03:22:21.181Z,15.70
2018-09-17T03:24:51.186Z,15.70
2018-09-17T03:27:21.450Z,15.70
2018-09-17T03:29:51.430Z,15.70
2018-09-17T03:32:21.657Z,15.70
2018-09-17T03:34:54.485Z,15.70
2018-09-17T03:37:28.887Z,15.70
2018-09-17T03:40:00.596Z,15.70
2018-09-17T03:42:30.750Z,15.60
2018-09-17T03:45:00.652Z,15.60
2018-09-17T03:47:30.530Z,15.60
2018-09-17T03:50:00.615Z,15.60
2018-09-17T03:52:30.714Z,15.60
2018-09-17T03:55:00.991Z,15.60
2018-09-17T03:57:31.099Z,15.60
2018-09-17T04:00:01.192Z,15.60
2018-09-17T04:02:31.313Z,15.60
2018-09-17T04:05:01.710Z,15.60
2018-09-17T04:07:31.846Z,15.60
2018-09-17T04:10:01.834Z,15.60
2018-09-17T04:12:32.018Z,15.60
2018-09-17T04:15:02.203Z,15.60
2018-09-17T04:17:32.390Z,15.50
2018-09-17T04:20:02.598Z,15.50
2018-09-17T04:22:32.733Z,15.60
2018-09-17T04:25:02.765Z,15.50
2018-09-17T04:27:33.068Z,15.50
2018-09-17T04:30:03.093Z,15.50
2018-09-17T04:32:33.872Z,15.50
2018-09-17T04:35:05.134Z,15.50
2018-09-17T04:37:35.540Z,15.50
2018-09-17T04:40:05.794Z,15.50
2018-09-17T04:42:36.798Z,15.50
2018-09-17T04:45:07.030Z,15.50
2018-09-17T04:47:37.337Z,15.50
2018-09-17T04:50:07.599Z,15.50
2018-09-17T04:52:37.875Z,15.50
2018-09-17T04:55:07.946Z,15.40
2018-09-17T04:57:37.762Z,15.40
2018-09-17T05:00:08.008Z,15.40
2018-09-17T05:02:38.830Z,15.40
2018-09-17T05:05:08.884Z,15.40
2018-09-17T05:07:39.031Z,15.40
2018-09-17T05:10:09.077Z,15.30
2018-09-17T05:12:39.383Z,15.30
2018-09-17T05:15:09.408Z,15.30
2018-09-17T05:17:39.425Z,15.30
2018-09-17T05:20:09.338Z,15.20
2018-09-17T05:22:39.580Z,15.30
2018-09-17T05:25:09.571Z,15.20
2018-09-17T05:27:39.691Z,15.30
2018-09-17T05:30:09.806Z,15.30
2018-09-17T05:32:40.064Z,15.30
2018-09-17T05:35:10.305Z,15.30
2018-09-17T05:37:40.302Z,15.30
2018-09-17T05:40:10.483Z,15.30
2018-09-17T05:42:40.646Z,15.20
2018-09-17T05:45:10.791Z,15.20
2018-09-17T05:47:40.750Z,15.20
2018-09-17T05:50:10.958Z,15.20
2018-09-17T05:52:41.146Z,15.20
2018-09-17T05:55:11.363Z,15.20
2018-09-17T05:57:41.387Z,15.20
2018-09-17T06:00:11.607Z,15.20
2018-09-17T06:02:41.897Z,15.20
2018-09-17T06:05:11.871Z,15.20
2018-09-17T06:07:41.727Z,15.20
2018-09-17T06:10:15.938Z,15.20
2018-09-17T06:12:47.352Z,15.20
2018-09-17T06:15:17.713Z,15.20
2018-09-17T06:17:48.719Z,15.20
2018-09-17T06:20:19.506Z,15.20
2018-09-17T06:22:50.315Z,15.20
2018-09-17T06:25:20.453Z,15.20
2018-09-17T06:27:50.653Z,15.20
2018-09-17T06:30:20.808Z,15.20
2018-09-17T06:32:51.114Z,15.20
2018-09-17T06:35:21.284Z,15.20
2018-09-17T06:37:51.629Z,15.20
2018-09-17T06:40:21.605Z,15.20
2018-09-17T06:42:52.524Z,15.20
2018-09-17T06:45:22.604Z,15.20
2018-09-17T06:47:53.896Z,15.30
2018-09-17T06:50:24.265Z,15.20
2018-09-17T06:52:54.539Z,15.20
2018-09-17T06:55:24.920Z,15.30
2018-09-17T06:57:55.055Z,15.30
2018-09-17T07:00:25.179Z,15.20
2018-09-17T07:02:55.238Z,15.20
2018-09-17T07:05:25.447Z,15.30
2018-09-17T07:07:55.564Z,15.30
2018-09-17T07:10:25.613Z,15.30
2018-09-17T07:12:55.800Z,15.30
2018-09-17T07:15:26.069Z,15.30
2018-09-17T07:17:56.256Z,15.30
2018-09-17T07:20:26.537Z,15.30
2018-09-17T07:22:56.556Z,15.30
2018-09-17T07:25:26.860Z,15.30
2018-09-17T07:27:57.147Z,15.40
2018-09-17T07:30:27.377Z,15.40
2018-09-17T07:32:57.508Z,15.40
2018-09-17T07:35:27.614Z,15.40
2018-09-17T07:37:57.871Z,15.40
2018-09-17T07:40:27.795Z,15.40
2018-09-17T07:42:57.745Z,15.40
2018-09-17T07:45:27.936Z,15.40
2018-09-17T07:47:58.193Z,15.40
2018-09-17T07:50:28.404Z,15.40
2018-09-17T07:52:58.756Z,15.40
2018-09-17T07:55:29.022Z,15.50
2018-09-17T07:57:59.112Z,15.50
2018-09-17T08:00:29.123Z,15.50
2018-09-17T08:02:59.393Z,15.50
2018-09-17T08:05:29.529Z,15.60
2018-09-17T08:07:59.614Z,15.60
2018-09-17T08:10:29.649Z,15.60
2018-09-17T08:12:59.734Z,15.60
2018-09-17T08:15:29.898Z,15.60
2018-09-17T08:18:06.453Z,15.70
2018-09-17T08:20:37.026Z,15.70
2018-09-17T08:23:07.202Z,15.80
2018-09-17T08:25:37.571Z,15.80
2018-09-17T08:28:07.528Z,15.80
2018-09-17T08:30:37.664Z,15.80
2018-09-17T08:33:07.652Z,15.80
2018-09-17T08:35:37.776Z,15.80
2018-09-17T08:38:07.937Z,15.80
2018-09-17T08:40:37.938Z,15.80
2018-09-17T08:43:08.033Z,15.80
2018-09-17T08:45:38.210Z,15.80
2018-09-17T08:48:08.428Z,15.80
2018-09-17T08:50:38.778Z,15.80
2018-09-17T08:53:08.729Z,15.90
2018-09-17T08:55:43.761Z,15.90
2018-09-17T08:58:18.961Z,15.90
2018-09-17T09:00:54.174Z,15.90
2018-09-17T09:03:27.265Z,15.90
2018-09-17T09:06:02.536Z,15.90
2018-09-17T09:08:34.352Z,15.90
2018-09-17T09:11:09.528Z,15.90
2018-09-17T09:13:44.780Z,15.90
2018-09-17T09:16:14.892Z,15.90
2018-09-17T09:18:45.017Z,15.90
2018-09-17T09:21:15.295Z,15.90
2018-09-17T09:23:45.443Z,15.90
2018-09-17T09:26:15.773Z,16.00
2018-09-17T09:28:45.740Z,16.00
2018-09-17T09:31:15.789Z,16.00
2018-09-17T09:33:45.882Z,16.00
2018-09-17T09:36:15.983Z,16.00
2018-09-17T09:38:46.292Z,16.00
2018-09-17T09:41:16.244Z,16.00
2018-09-17T09:43:46.605Z,16.10
2018-09-17T09:46:17.050Z,16.10
2018-09-17T09:48:47.081Z,16.10
2018-09-17T09:51:17.285Z,16.10
2018-09-17T09:53:47.604Z,16.10
2018-09-17T09:56:17.609Z,16.10
2018-09-17T09:58:48.005Z,16.20
2018-09-17T10:02:24.578Z,16.20
2018-09-17T10:04:54.622Z,16.30
2018-09-17T10:07:24.818Z,16.30
2018-09-17T10:10:00.041Z,16.30
2018-09-17T10:12:35.343Z,16.30
2018-09-17T10:15:10.478Z,16.30
2018-09-17T10:17:45.768Z,16.30
2018-09-17T10:20:17.117Z,16.30
2018-09-17T10:22:47.746Z,16.30
2018-09-17T10:25:19.350Z,16.40
2018-09-17T10:27:50.342Z,16.40
2018-09-17T10:30:23.552Z,16.40
2018-09-17T10:32:53.858Z,16.40
2018-09-17T10:35:24.043Z,16.40
2018-09-17T10:37:54.060Z,16.40
2018-09-17T10:40:29.262Z,16.40
2018-09-17T10:43:05.457Z,16.50
2018-09-17T10:45:36.413Z,16.50
2018-09-17T10:48:06.401Z,16.50
2018-09-17T10:50:36.473Z,16.50
2018-09-17T10:53:06.636Z,16.50
2018-09-17T10:55:36.769Z,16.60
2018-09-17T10:58:06.818Z,16.60
2018-09-17T11:00:36.982Z,16.60
2018-09-17T11:03:07.139Z,16.70
2018-09-17T11:05:37.198Z,16.70
2018-09-17T11:08:07.534Z,16.70
2018-09-17T11:10:37.562Z,16.70
2018-09-17T11:13:07.854Z,16.70
2018-09-17T11:15:43.238Z,16.70
2018-09-17T11:18:13.310Z,16.80
2018-09-17T11:20:43.565Z,16.80
2018-09-17T11:23:13.703Z,16.80
2018-09-17T11:25:43.717Z,16.80
2018-09-17T11:28:13.872Z,16.90
2018-09-17T11:30:44.046Z,16.90
2018-09-17T11:33:14.291Z,16.90
2018-09-17T11:35:44.303Z,16.90
2018-09-17T11:38:14.434Z,16.90
2018-09-17T11:40:44.424Z,16.90
2018-09-17T11:43:14.356Z,16.90
2018-09-17T11:45:44.443Z,16.90
2018-09-17T11:48:14.643Z,17.00
2018-09-17T11:50:44.907Z,17.00
2018-09-17T11:53:15.110Z,17.00
2018-09-17T11:55:45.282Z,17.00
2018-09-17T11:58:15.244Z,17.00
2018-09-17T12:00:50.382Z,17.00
2018-09-17T12:03:25.372Z,17.00
2018-09-17T12:05:59.736Z,17.10
2018-09-17T12:08:29.971Z,17.10
2018-09-17T12:11:00.044Z,17.10
2018-09-17T12:13:30.428Z,17.10
2018-09-17T12:16:00.896Z,17.20
2018-09-17T12:18:31.085Z,17.20
2018-09-17T12:21:01.284Z,17.30
2018-09-17T12:23:31.247Z,17.30
2018-09-17T12:26:01.324Z,17.40
2018-09-17T12:28:31.289Z,17.40
2018-09-17T12:31:01.475Z,17.50
2018-09-17T12:33:31.873Z,17.50
2018-09-17T12:36:01.738Z,17.50
2018-09-17T12:38:31.964Z,17.60
2018-09-17T12:41:01.901Z,17.60
2018-09-17T12:43:32.063Z,17.70
2018-09-17T12:46:02.404Z,17.70
2018-09-17T12:48:32.401Z,17.70
2018-09-17T12:51:04.332Z,17.80
2018-09-17T12:53:34.606Z,17.80
2018-09-17T12:56:04.904Z,17.80
2018-09-17T12:58:34.938Z,17.90
2018-09-17T13:01:07.235Z,17.90
2018-09-17T13:03:37.478Z,18.00
2018-09-17T13:06:07.356Z,18.00
2018-09-17T13:08:37.654Z,18.00
2018-09-17T13:11:07.839Z,18.00
2018-09-17T13:13:39.027Z,18.10
2018-09-17T13:16:09.061Z,18.10
2018-09-17T13:18:39.101Z,18.10
2018-09-17T13:21:09.399Z,18.10
2018-09-17T13:23:39.467Z,18.10
2018-09-17T13:26:09.769Z,18.10
2018-09-17T13:28:39.967Z,18.20
2018-09-17T13:31:10.003Z,18.20
2018-09-17T13:33:40.323Z,18.20
2018-09-17T13:36:10.505Z,18.20
2018-09-17T13:38:40.500Z,18.20
2018-09-17T13:41:10.667Z,18.30
2018-09-17T13:43:40.739Z,18.30
2018-09-17T13:46:10.771Z,18.30
2018-09-17T13:48:40.835Z,18.30
2018-09-17T13:51:10.902Z,18.30
2018-09-17T13:53:41.291Z,18.30
2018-09-17T13:56:11.389Z,18.30
2018-09-17T13:58:41.427Z,18.30
2018-09-17T14:01:11.759Z,18.30
2018-09-17T14:03:41.905Z,18.30
2018-09-17T14:06:12.110Z,18.40
2018-09-17T14:08:42.072Z,18.40
2018-09-17T14:11:12.177Z,18.40
2018-09-17T14:13:42.466Z,18.40
2018-09-17T14:16:12.625Z,18.40
2018-09-17T14:18:42.642Z,18.40
2018-09-17T14:21:12.821Z,18.40
2018-09-17T14:23:42.744Z,18.40
2018-09-17T14:26:12.992Z,18.40
2018-09-17T14:28:43.185Z,18.40
2018-09-17T14:31:13.324Z,18.40
2018-09-17T14:33:43.534Z,18.40
2018-09-17T14:36:13.723Z,18.40
2018-09-17T14:38:43.795Z,18.40
2018-09-17T14:41:13.961Z,18.40
2018-09-17T14:43:44.344Z,18.40
2018-09-17T14:46:15.404Z,18.40
2018-09-17T14:48:47.968Z,18.60
2018-09-17T14:51:18.304Z,18.90
2018-09-17T14:53:48.502Z,19.20
2018-09-17T14:56:18.589Z,19.30
2018-09-17T14:58:49.119Z,19.40
2018-09-17T15:01:20.203Z,19.50
2018-09-17T15:03:50.317Z,19.60
2018-09-17T15:06:20.481Z,19.60
2018-09-17T15:08:50.763Z,19.60
2018-09-17T15:11:21.063Z,19.60
2018-09-17T15:13:51.303Z,19.60
2018-09-17T15:16:21.545Z,19.60
2018-09-17T15:18:51.769Z,19.60
2018-09-17T15:21:21.956Z,19.70
2018-09-17T15:23:52.207Z,19.70
2018-09-17T15:26:22.387Z,19.70
2018-09-17T15:28:52.506Z,19.70
2018-09-17T15:31:22.673Z,19.70
2018-09-17T15:33:52.754Z,19.70
2018-09-17T15:36:23.108Z,19.70
2018-09-17T15:38:53.083Z,19.80
2018-09-17T15:41:23.499Z,19.70
2018-09-17T15:43:53.495Z,19.80
2018-09-17T15:46:23.842Z,19.70
2018-09-17T15:48:54.028Z,19.80
2018-09-17T15:51:24.195Z,19.80
2018-09-17T15:53:54.433Z,19.80
2018-09-17T15:56:24.840Z,19.80
2018-09-17T15:58:55.021Z,19.80
2018-09-17T16:01:25.319Z,19.80
2018-09-17T16:03:55.439Z,19.80
2018-09-17T16:06:25.692Z,19.80
2018-09-17T16:08:55.616Z,19.80
2018-09-17T16:11:25.902Z,19.80
2018-09-17T16:13:56.141Z,19.80
2018-09-17T16:16:26.514Z,19.80
2018-09-17T16:18:56.692Z,19.80
2018-09-17T16:21:26.878Z,19.80
2018-09-17T16:23:56.984Z,19.80
2018-09-17T16:26:27.266Z,19.80
2018-09-17T16:28:57.554Z,19.80
2018-09-17T16:31:27.592Z,19.80
2018-09-17T16:33:57.851Z,19.70
2018-09-17T16:36:28.136Z,19.70
2018-09-17T16:38:58.324Z,19.80
2018-09-17T16:41:28.424Z,19.80
2018-09-17T16:43:59.294Z,19.80
2018-09-17T16:46:29.596Z,19.70
2018-09-17T16:48:59.713Z,19.50
2018-09-17T16:51:29.947Z,19.50
2018-09-17T16:54:00.272Z,19.60
2018-09-17T16:56:30.267Z,19.60
2018-09-17T16:59:00.551Z,19.60
2018-09-17T17:01:30.979Z,19.60
2018-09-17T17:04:01.216Z,19.60
2018-09-17T17:06:31.830Z,19.60
2018-09-17T17:09:01.814Z,19.60
2018-09-17T17:11:32.053Z,19.60
2018-09-17T17:14:02.202Z,19.60
2018-09-17T17:16:32.542Z,19.60
2018-09-17T17:19:02.683Z,19.60
2018-09-17T17:21:32.792Z,19.60
2018-09-17T17:24:03.036Z,19.60
2018-09-17T17:26:33.169Z,19.60
2018-09-17T17:29:04.253Z,19.60
2018-09-17T17:31:34.402Z,19.60
2018-09-17T17:34:04.517Z,19.60
2018-09-17T17:36:34.776Z,19.60
2018-09-17T17:39:06.959Z,19.50
2018-09-17T17:41:37.166Z,19.50
2018-09-17T17:44:07.430Z,19.50
2018-09-17T17:46:37.391Z,19.50
2018-09-17T17:49:07.642Z,19.50
2018-09-17T17:51:38.024Z,19.50
2018-09-17T17:54:08.561Z,19.50
2018-09-17T17:56:38.883Z,19.40
2018-09-17T17:59:09.083Z,19.50
2018-09-17T18:01:39.123Z,19.50
2018-09-17T18:04:09.266Z,19.40
2018-09-17T18:06:39.605Z,19.40
2018-09-17T18:09:11.320Z,19.40
2018-09-17T18:11:41.754Z,19.40
2018-09-17T18:14:11.814Z,19.40
2018-09-17T18:16:41.973Z,19.40
2018-09-17T18:19:12.300Z,19.30
2018-09-17T18:21:42.577Z,19.40
2018-09-17T18:24:12.779Z,19.30
2018-09-17T18:26:43.027Z,19.30
2018-09-17T18:29:13.131Z,19.30
2018-09-17T18:31:43.428Z,19.30
2018-09-17T18:34:13.630Z,19.30
2018-09-17T18:36:43.971Z,19.30
2018-09-17T18:39:14.106Z,19.30
2018-09-17T18:41:44.352Z,19.30
2018-09-17T18:44:14.368Z,19.20
2018-09-17T18:46:44.635Z,19.20
2018-09-17T18:49:14.800Z,19.20
2018-09-17T18:51:45.145Z,19.20
2018-09-17T18:54:15.365Z,19.20
2018-09-17T18:56:45.604Z,19.20
2018-09-17T18:59:15.829Z,19.20
2018-09-17T19:01:46.109Z,19.20
2018-09-17T19:04:16.457Z,19.10
2018-09-17T19:06:46.717Z,19.10
2018-09-17T19:09:18.790Z,19.10
2018-09-17T19:11:49.186Z,19.10
2018-09-17T19:14:24.569Z,19.00
2018-09-17T19:16:57.027Z,19.10
2018-09-17T19:19:27.214Z,19.00
2018-09-17T19:22:03.247Z,19.00
2018-09-17T19:24:33.572Z,19.00
2018-09-17T19:27:03.900Z,19.00
2018-09-17T19:29:34.085Z,19.00
2018-09-17T19:32:04.383Z,19.00
2018-09-17T19:34:34.621Z,19.00
2018-09-17T19:37:09.730Z,18.90
2018-09-17T19:40:14.749Z,18.90
2018-09-17T19:42:46.016Z,18.90
2018-09-17T19:45:21.696Z,18.80
2018-09-17T19:47:52.580Z,18.80
2018-09-17T19:50:27.940Z,18.80
2018-09-17T19:52:59.220Z,18.80
2018-09-17T19:55:29.704Z,18.80
2018-09-17T19:58:05.020Z,18.80
2018-09-17T20:00:35.526Z,18.80
2018-09-17T20:03:05.572Z,18.80
2018-09-17T20:05:40.840Z,18.70
2018-09-17T20:08:11.008Z,18.70
2018-09-17T20:10:41.154Z,18.60
2018-09-17T20:13:11.525Z,17.90
2018-09-17T20:15:41.684Z,18.10
2018-09-17T20:18:13.330Z,18.20
2018-09-17T20:20:43.656Z,18.40
2018-09-17T20:23:13.778Z,18.40
2018-09-17T20:25:44.271Z,18.50
2018-09-17T20:28:14.625Z,18.50
2018-09-17T20:30:44.882Z,18.50
2018-09-17T20:33:15.261Z,18.50
2018-09-17T20:35:45.489Z,18.40
2018-09-17T20:38:15.794Z,18.40
2018-09-17T20:40:46.014Z,18.40
2018-09-17T20:43:16.333Z,18.40
2018-09-17T20:45:46.480Z,18.40
2018-09-17T20:48:16.572Z,18.40
2018-09-17T20:50:46.664Z,18.40
2018-09-17T20:53:16.840Z,18.40
2018-09-17T20:55:48.108Z,18.30
2018-09-17T20:58:18.768Z,18.30
2018-09-17T21:00:49.620Z,18.30
2018-09-17T21:03:20.617Z,18.30
2018-09-17T21:05:50.770Z,18.30
2018-09-17T21:08:20.850Z,18.30
2018-09-17T21:10:51.020Z,18.30
2018-09-17T21:13:21.005Z,18.20
2018-09-17T21:15:51.215Z,18.20
2018-09-17T21:18:21.353Z,18.20
2018-09-17T21:20:56.236Z,18.20
2018-09-17T21:23:26.354Z,18.20
2018-09-17T21:25:56.568Z,18.10
2018-09-17T21:28:26.900Z,18.10
2018-09-17T21:30:57.534Z,18.10
2018-09-17T21:33:27.484Z,18.10
2018-09-17T21:35:57.885Z,18.10
2018-09-17T21:38:28.048Z,18.10
2018-09-17T21:40:58.142Z,18.00
2018-09-17T21:43:28.206Z,18.00
2018-09-17T21:45:58.390Z,18.00
2018-09-17T21:48:28.699Z,18.00
2018-09-17T21:50:58.727Z,18.00
2018-09-17T21:53:29.015Z,18.00
2018-09-17T21:55:59.022Z,17.90
2018-09-17T21:58:29.133Z,17.90
2018-09-17T22:01:00.050Z,17.90
2018-09-17T22:03:31.756Z,17.90
2018-09-17T22:06:01.856Z,17.90
2018-09-17T22:08:32.154Z,17.80
2018-09-17T22:11:02.349Z,17.80
2018-09-17T22:13:32.409Z,17.80
2018-09-17T22:16:02.699Z,17.80
2018-09-17T22:18:32.642Z,17.80
2018-09-17T22:21:02.743Z,17.80
2018-09-17T22:23:33.031Z,17.70
2018-09-17T22:26:03.060Z,17.70
2018-09-17T22:28:33.037Z,17.70
2018-09-17T22:31:03.360Z,17.70
2018-09-17T22:33:33.299Z,17.70
2018-09-17T22:36:03.568Z,17.70
2018-09-17T22:38:33.760Z,17.60
2018-09-17T22:41:04.135Z,17.60
2018-09-17T22:43:34.510Z,17.60
2018-09-17T22:46:04.733Z,17.60
2018-09-17T22:48:34.905Z,17.50
2018-09-17T22:51:05.065Z,17.50
2018-09-17T22:53:35.370Z,17.50
2018-09-17T22:56:05.360Z,17.50
2018-09-17T22:58:35.298Z,17.50
2018-09-17T23:01:05.290Z,17.50
2018-09-17T23:03:35.442Z,17.50
2018-09-17T23:06:05.762Z,17.50
2018-09-17T23:08:36.043Z,17.40
2018-09-17T23:11:06.007Z,17.40
2018-09-17T23:13:36.028Z,17.40
2018-09-17T23:16:06.162Z,17.40
2018-09-17T23:18:36.352Z,17.40
2018-09-17T23:21:06.678Z,17.30
2018-09-17T23:23:36.769Z,17.30
2018-09-17T23:26:07.274Z,17.30
2018-09-17T23:28:37.465Z,17.30
2018-09-17T23:31:07.633Z,17.30
2018-09-17T23:33:37.788Z,17.30
2018-09-17T23:36:08.183Z,17.20
2018-09-17T23:38:38.204Z,17.20
2018-09-17T23:41:08.348Z,17.20
2018-09-17T23:43:38.610Z,17.20
2018-09-17T23:46:08.679Z,17.20
2018-09-17T23:48:38.774Z,17.20
2018-09-17T23:51:09.059Z,17.20
2018-09-17T23:53:39.000Z,17.10
2018-09-17T23:56:09.245Z,17.10
2018-09-17T23:58:39.384Z,17.10
